sensor_id;sensor_type;location;lat;lon;timestamp;pressure;altitude;pressure_sealevel;temperature;humidity
57024;BME280;42916;54.346;18.562;2023-10-19T00:01:08;100058.47;;;5.89;100.00
57024;BME280;42916;54.346;18.562;2023-10-19T00:03:38;100060.15;;;5.88;100.00
57024;BME280;42916;54.346;18.562;2023-10-19T00:06:04;100059.27;;;5.88;100.00
57024;BME280;42916;54.346;18.562;2023-10-19T00:08:32;100059.33;;;5.90;100.00
57024;BME280;42916;54.346;18.562;2023-10-19T00:11:08;100060.18;;;5.91;100.00
57024;BME280;42916;54.346;18.562;2023-10-19T00:13:54;100056.39;;;5.90;100.00
57024;BME280;42916;54.346;18.562;2023-10-19T00:16:21;100051.27;;;5.92;100.00
57024;BME280;42916;54.346;18.562;2023-10-19T00:18:57;100048.78;;;5.92;100.00
57024;BME280;42916;54.346;18.562;2023-10-19T00:21:26;100046.77;;;5.92;100.00
57024;BME280;42916;54.346;18.562;2023-10-19T00:23:55;100047.42;;;5.92;100.00
57024;BME280;42916;54.346;18.562;2023-10-19T00:26:31;100048.23;;;5.92;100.00
57024;BME280;42916;54.346;18.562;2023-10-19T00:28:59;100044.70;;;5.93;100.00
57024;BME280;42916;54.346;18.562;2023-10-19T00:31:31;100044.33;;;5.93;100.00
57024;BME280;42916;54.346;18.562;2023-10-19T00:34:06;100038.38;;;5.93;100.00
57024;BME280;42916;54.346;18.562;2023-10-19T00:36:33;100035.08;;;5.95;100.00
57024;BME280;42916;54.346;18.562;2023-10-19T00:39:01;100036.36;;;5.96;100.00
57024;BME280;42916;54.346;18.562;2023-10-19T00:41:40;100031.52;;;5.98;100.00
57024;BME280;42916;54.346;18.562;2023-10-19T00:44:07;100029.52;;;5.98;100.00
57024;BME280;42916;54.346;18.562;2023-10-19T00:46:38;100029.02;;;6.00;100.00
57024;BME280;42916;54.346;18.562;2023-10-19T00:49:11;100025.08;;;6.05;100.00
57024;BME280;42916;54.346;18.562;2023-10-19T00:51:46;100019.41;;;6.09;100.00
57024;BME280;42916;54.346;18.562;2023-10-19T00:54:27;100015.45;;;6.09;100.00
57024;BME280;42916;54.346;18.562;2023-10-19T00:57:01;100014.14;;;6.08;100.00
57024;BME280;42916;54.346;18.562;2023-10-19T00:59:40;100010.95;;;6.08;100.00
57024;BME280;42916;54.346;18.562;2023-10-19T01:02:15;100008.42;;;6.08;100.00
57024;BME280;42916;54.346;18.562;2023-10-19T01:04:49;100006.48;;;6.09;100.00
57024;BME280;42916;54.346;18.562;2023-10-19T01:07:23;100001.20;;;6.12;100.00
57024;BME280;42916;54.346;18.562;2023-10-19T01:10:01;99999.07;;;6.15;100.00
57024;BME280;42916;54.346;18.562;2023-10-19T01:12:32;99997.86;;;6.19;100.00
57024;BME280;42916;54.346;18.562;2023-10-19T01:15:13;99993.47;;;6.23;100.00
57024;BME280;42916;54.346;18.562;2023-10-19T01:17:48;99990.96;;;6.28;100.00
57024;BME280;42916;54.346;18.562;2023-10-19T01:20:20;99991.23;;;6.32;100.00
57024;BME280;42916;54.346;18.562;2023-10-19T01:23:02;99987.58;;;6.38;100.00
57024;BME280;42916;54.346;18.562;2023-10-19T01:28:09;99980.27;;;6.51;100.00
57024;BME280;42916;54.346;18.562;2023-10-19T01:30:37;99973.37;;;6.54;100.00
57024;BME280;42916;54.346;18.562;2023-10-19T01:33:04;99974.09;;;6.55;100.00
57024;BME280;42916;54.346;18.562;2023-10-19T01:35:39;99970.15;;;6.55;100.00
57024;BME280;42916;54.346;18.562;2023-10-19T01:38:24;99965.45;;;6.58;100.00
57024;BME280;42916;54.346;18.562;2023-10-19T01:40:51;99960.97;;;6.58;100.00
57024;BME280;42916;54.346;18.562;2023-10-19T01:43:21;99957.39;;;6.61;100.00
57024;BME280;42916;54.346;18.562;2023-10-19T01:45:48;99950.54;;;6.64;100.00
57024;BME280;42916;54.346;18.562;2023-10-19T01:48:15;99947.65;;;6.66;100.00
57024;BME280;42916;54.346;18.562;2023-10-19T01:50:42;99946.03;;;6.69;100.00
57024;BME280;42916;54.346;18.562;2023-10-19T01:53:10;99942.84;;;6.71;100.00
57024;BME280;42916;54.346;18.562;2023-10-19T01:55:42;99939.92;;;6.69;100.00
57024;BME280;42916;54.346;18.562;2023-10-19T01:58:10;99937.29;;;6.64;100.00
57024;BME280;42916;54.346;18.562;2023-10-19T02:00:37;99938.46;;;6.60;100.00
57024;BME280;42916;54.346;18.562;2023-10-19T02:03:07;99935.33;;;6.60;100.00
57024;BME280;42916;54.346;18.562;2023-10-19T02:05:35;99934.07;;;6.62;100.00
57024;BME280;42916;54.346;18.562;2023-10-19T02:08:09;99923.45;;;6.60;100.00
57024;BME280;42916;54.346;18.562;2023-10-19T02:10:36;99922.30;;;6.61;100.00
57024;BME280;42916;54.346;18.562;2023-10-19T02:13:08;99917.60;;;6.62;100.00
57024;BME280;42916;54.346;18.562;2023-10-19T02:15:35;99915.41;;;6.67;100.00
57024;BME280;42916;54.346;18.562;2023-10-19T02:18:03;99916.04;;;6.70;100.00
57024;BME280;42916;54.346;18.562;2023-10-19T02:20:31;99912.59;;;6.73;100.00
57024;BME280;42916;54.346;18.562;2023-10-19T02:22:58;99909.23;;;6.71;100.00
57024;BME280;42916;54.346;18.562;2023-10-19T02:25:30;99907.27;;;6.70;100.00
57024;BME280;42916;54.346;18.562;2023-10-19T02:28:06;99904.58;;;6.68;100.00
57024;BME280;42916;54.346;18.562;2023-10-19T02:30:33;99900.08;;;6.66;100.00
57024;BME280;42916;54.346;18.562;2023-10-19T02:33:04;99895.30;;;6.67;100.00
57024;BME280;42916;54.346;18.562;2023-10-19T02:35:32;99900.59;;;6.67;100.00
57024;BME280;42916;54.346;18.562;2023-10-19T02:38:01;99899.48;;;6.63;100.00
57024;BME280;42916;54.346;18.562;2023-10-19T02:40:28;99895.35;;;6.59;100.00
57024;BME280;42916;54.346;18.562;2023-10-19T02:43:00;99890.34;;;6.56;100.00
57024;BME280;42916;54.346;18.562;2023-10-19T02:45:29;99884.40;;;6.56;100.00
57024;BME280;42916;54.346;18.562;2023-10-19T02:47:58;99885.83;;;6.58;100.00
57024;BME280;42916;54.346;18.562;2023-10-19T02:50:25;99890.28;;;6.59;100.00
57024;BME280;42916;54.346;18.562;2023-10-19T02:52:52;99885.61;;;6.58;100.00
57024;BME280;42916;54.346;18.562;2023-10-19T02:55:20;99882.78;;;6.54;100.00
57024;BME280;42916;54.346;18.562;2023-10-19T02:57:50;99881.45;;;6.56;100.00
57024;BME280;42916;54.346;18.562;2023-10-19T03:00:17;99880.08;;;6.51;100.00
57024;BME280;42916;54.346;18.562;2023-10-19T03:02:48;99874.30;;;6.45;100.00
57024;BME280;42916;54.346;18.562;2023-10-19T03:05:15;99871.92;;;6.43;100.00
57024;BME280;42916;54.346;18.562;2023-10-19T03:07:43;99864.48;;;6.37;100.00
57024;BME280;42916;54.346;18.562;2023-10-19T03:10:10;99863.27;;;6.34;100.00
57024;BME280;42916;54.346;18.562;2023-10-19T03:12:50;99855.00;;;6.33;100.00
57024;BME280;42916;54.346;18.562;2023-10-19T03:15:17;99852.46;;;6.36;100.00
57024;BME280;42916;54.346;18.562;2023-10-19T03:17:47;99849.81;;;6.36;100.00
57024;BME280;42916;54.346;18.562;2023-10-19T03:20:15;99846.11;;;6.37;100.00
57024;BME280;42916;54.346;18.562;2023-10-19T03:22:44;99847.55;;;6.40;100.00
57024;BME280;42916;54.346;18.562;2023-10-19T03:25:13;99843.17;;;6.40;100.00
57024;BME280;42916;54.346;18.562;2023-10-19T03:28:13;99842.75;;;6.47;100.00
57024;BME280;42916;54.346;18.562;2023-10-19T03:30:43;99836.66;;;6.50;100.00
57024;BME280;42916;54.346;18.562;2023-10-19T03:33:09;99833.64;;;6.49;100.00
57024;BME280;42916;54.346;18.562;2023-10-19T03:35:38;99821.64;;;6.52;100.00
57024;BME280;42916;54.346;18.562;2023-10-19T03:38:08;99821.95;;;6.58;100.00
57024;BME280;42916;54.346;18.562;2023-10-19T03:40:43;99825.17;;;6.66;100.00
57024;BME280;42916;54.346;18.562;2023-10-19T03:43:18;99823.71;;;6.72;100.00
57024;BME280;42916;54.346;18.562;2023-10-19T03:45:48;99820.69;;;6.76;100.00
57024;BME280;42916;54.346;18.562;2023-10-19T03:48:18;99820.68;;;6.79;100.00
57024;BME280;42916;54.346;18.562;2023-10-19T03:50:50;99818.80;;;6.79;100.00
57024;BME280;42916;54.346;18.562;2023-10-19T03:53:18;99817.48;;;6.81;100.00
57024;BME280;42916;54.346;18.562;2023-10-19T03:55:48;99815.86;;;6.82;100.00
57024;BME280;42916;54.346;18.562;2023-10-19T03:58:16;99813.94;;;6.86;100.00
57024;BME280;42916;54.346;18.562;2023-10-19T04:00:43;99816.01;;;6.90;100.00
57024;BME280;42916;54.346;18.562;2023-10-19T04:03:11;99817.25;;;6.94;100.00
57024;BME280;42916;54.346;18.562;2023-10-19T04:05:38;99812.19;;;6.95;100.00
57024;BME280;42916;54.346;18.562;2023-10-19T04:08:06;99817.25;;;6.97;100.00
57024;BME280;42916;54.346;18.562;2023-10-19T04:10:46;99813.23;;;6.98;100.00
57024;BME280;42916;54.346;18.562;2023-10-19T04:13:33;99810.82;;;7.00;100.00
57024;BME280;42916;54.346;18.562;2023-10-19T04:16:01;99808.31;;;7.04;100.00
57024;BME280;42916;54.346;18.562;2023-10-19T04:18:27;99807.33;;;7.05;100.00
57024;BME280;42916;54.346;18.562;2023-10-19T04:20:55;99805.52;;;7.07;100.00
57024;BME280;42916;54.346;18.562;2023-10-19T04:23:22;99800.02;;;7.08;100.00
57024;BME280;42916;54.346;18.562;2023-10-19T04:25:56;99792.98;;;7.05;100.00
57024;BME280;42916;54.346;18.562;2023-10-19T04:28:23;99789.70;;;7.01;100.00
57024;BME280;42916;54.346;18.562;2023-10-19T04:31:12;99790.81;;;6.98;100.00
57024;BME280;42916;54.346;18.562;2023-10-19T04:33:41;99791.45;;;6.94;100.00
57024;BME280;42916;54.346;18.562;2023-10-19T04:36:13;99790.42;;;6.90;100.00
57024;BME280;42916;54.346;18.562;2023-10-19T04:38:41;99795.64;;;6.88;100.00
57024;BME280;42916;54.346;18.562;2023-10-19T04:41:08;99798.51;;;6.85;100.00
57024;BME280;42916;54.346;18.562;2023-10-19T04:43:36;99801.13;;;6.79;100.00
57024;BME280;42916;54.346;18.562;2023-10-19T04:46:07;99799.06;;;6.75;100.00
57024;BME280;42916;54.346;18.562;2023-10-19T04:48:41;99797.71;;;6.76;100.00
57024;BME280;42916;54.346;18.562;2023-10-19T04:51:08;99793.23;;;6.76;100.00
57024;BME280;42916;54.346;18.562;2023-10-19T04:53:38;99782.98;;;6.77;100.00
57024;BME280;42916;54.346;18.562;2023-10-19T04:56:06;99784.64;;;6.76;100.00
57024;BME280;42916;54.346;18.562;2023-10-19T04:58:35;99783.71;;;6.77;100.00
57024;BME280;42916;54.346;18.562;2023-10-19T05:01:03;99777.86;;;6.78;100.00
57024;BME280;42916;54.346;18.562;2023-10-19T05:03:30;99780.37;;;6.83;100.00
57024;BME280;42916;54.346;18.562;2023-10-19T05:05:58;99781.86;;;6.88;100.00
57024;BME280;42916;54.346;18.562;2023-10-19T05:08:24;99781.52;;;6.92;100.00
57024;BME280;42916;54.346;18.562;2023-10-19T05:10:52;99781.69;;;6.92;100.00
57024;BME280;42916;54.346;18.562;2023-10-19T05:13:21;99785.13;;;6.91;100.00
57024;BME280;42916;54.346;18.562;2023-10-19T05:15:48;99788.52;;;6.86;100.00
57024;BME280;42916;54.346;18.562;2023-10-19T05:18:14;99783.80;;;6.84;100.00
57024;BME280;42916;54.346;18.562;2023-10-19T05:20:41;99783.51;;;6.84;100.00
57024;BME280;42916;54.346;18.562;2023-10-19T05:23:08;99786.05;;;6.80;100.00
57024;BME280;42916;54.346;18.562;2023-10-19T05:25:36;99788.45;;;6.75;100.00
57024;BME280;42916;54.346;18.562;2023-10-19T05:28:06;99789.08;;;6.74;100.00
57024;BME280;42916;54.346;18.562;2023-10-19T05:30:35;99784.52;;;6.72;100.00
57024;BME280;42916;54.346;18.562;2023-10-19T05:33:02;99781.27;;;6.69;100.00
57024;BME280;42916;54.346;18.562;2023-10-19T05:35:30;99780.88;;;6.68;100.00
57024;BME280;42916;54.346;18.562;2023-10-19T05:37:56;99781.54;;;6.69;100.00
57024;BME280;42916;54.346;18.562;2023-10-19T05:40:26;99785.02;;;6.66;100.00
57024;BME280;42916;54.346;18.562;2023-10-19T05:42:57;99781.67;;;6.61;100.00
57024;BME280;42916;54.346;18.562;2023-10-19T05:45:24;99782.90;;;6.57;100.00
57024;BME280;42916;54.346;18.562;2023-10-19T05:47:53;99788.92;;;6.55;100.00
57024;BME280;42916;54.346;18.562;2023-10-19T05:50:20;99788.23;;;6.55;100.00
57024;BME280;42916;54.346;18.562;2023-10-19T05:52:47;99786.54;;;6.58;100.00
57024;BME280;42916;54.346;18.562;2023-10-19T05:55:15;99784.91;;;6.60;100.00
57024;BME280;42916;54.346;18.562;2023-10-19T05:57:42;99781.61;;;6.60;100.00
57024;BME280;42916;54.346;18.562;2023-10-19T06:00:11;99779.20;;;6.62;100.00
57024;BME280;42916;54.346;18.562;2023-10-19T06:02:43;99781.80;;;6.62;100.00
57024;BME280;42916;54.346;18.562;2023-10-19T06:05:12;99788.48;;;6.61;100.00
57024;BME280;42916;54.346;18.562;2023-10-19T06:07:45;99788.36;;;6.62;100.00
57024;BME280;42916;54.346;18.562;2023-10-19T06:10:15;99790.17;;;6.65;100.00
57024;BME280;42916;54.346;18.562;2023-10-19T06:12:46;99791.46;;;6.68;100.00
57024;BME280;42916;54.346;18.562;2023-10-19T06:15:15;99787.25;;;6.68;100.00
57024;BME280;42916;54.346;18.562;2023-10-19T06:17:43;99790.38;;;6.70;100.00
57024;BME280;42916;54.346;18.562;2023-10-19T06:20:11;99797.10;;;6.73;100.00
57024;BME280;42916;54.346;18.562;2023-10-19T06:22:58;99799.66;;;6.73;100.00
57024;BME280;42916;54.346;18.562;2023-10-19T06:25:32;99799.27;;;6.72;100.00
57024;BME280;42916;54.346;18.562;2023-10-19T06:27:59;99797.48;;;6.73;100.00
57024;BME280;42916;54.346;18.562;2023-10-19T06:30:26;99800.00;;;6.74;100.00
57024;BME280;42916;54.346;18.562;2023-10-19T06:32:55;99800.80;;;6.73;100.00
57024;BME280;42916;54.346;18.562;2023-10-19T06:35:22;99803.98;;;6.69;100.00
57024;BME280;42916;54.346;18.562;2023-10-19T06:37:50;99806.75;;;6.67;100.00
57024;BME280;42916;54.346;18.562;2023-10-19T06:40:16;99807.91;;;6.66;100.00
57024;BME280;42916;54.346;18.562;2023-10-19T06:42:44;99811.39;;;6.66;100.00
57024;BME280;42916;54.346;18.562;2023-10-19T06:45:14;99810.23;;;6.65;100.00
57024;BME280;42916;54.346;18.562;2023-10-19T06:47:43;99810.84;;;6.66;100.00
57024;BME280;42916;54.346;18.562;2023-10-19T06:50:11;99818.08;;;6.69;100.00
57024;BME280;42916;54.346;18.562;2023-10-19T06:52:39;99809.86;;;6.69;100.00
57024;BME280;42916;54.346;18.562;2023-10-19T06:55:07;99809.95;;;6.68;100.00
57024;BME280;42916;54.346;18.562;2023-10-19T06:57:41;99813.55;;;6.67;100.00
57024;BME280;42916;54.346;18.562;2023-10-19T07:00:13;99808.08;;;6.65;100.00
57024;BME280;42916;54.346;18.562;2023-10-19T07:02:47;99808.12;;;6.65;100.00
57024;BME280;42916;54.346;18.562;2023-10-19T07:05:15;99803.16;;;6.66;100.00
57024;BME280;42916;54.346;18.562;2023-10-19T07:07:45;99801.35;;;6.67;100.00
57024;BME280;42916;54.346;18.562;2023-10-19T07:10:13;99804.59;;;6.67;100.00
57024;BME280;42916;54.346;18.562;2023-10-19T07:12:46;99808.40;;;6.65;100.00
57024;BME280;42916;54.346;18.562;2023-10-19T07:15:14;99809.86;;;6.63;100.00
57024;BME280;42916;54.346;18.562;2023-10-19T07:17:41;99809.98;;;6.60;100.00
57024;BME280;42916;54.346;18.562;2023-10-19T07:20:10;99811.94;;;6.60;100.00
57024;BME280;42916;54.346;18.562;2023-10-19T07:22:59;99807.36;;;6.58;100.00
57024;BME280;42916;54.346;18.562;2023-10-19T07:25:49;99807.04;;;6.56;100.00
57024;BME280;42916;54.346;18.562;2023-10-19T07:28:23;99799.80;;;6.55;100.00
57024;BME280;42916;54.346;18.562;2023-10-19T07:30:53;99803.68;;;6.55;100.00
57024;BME280;42916;54.346;18.562;2023-10-19T07:33:19;99800.05;;;6.58;100.00
57024;BME280;42916;54.346;18.562;2023-10-19T07:35:47;99801.52;;;6.58;100.00
57024;BME280;42916;54.346;18.562;2023-10-19T07:38:18;99794.55;;;6.58;100.00
57024;BME280;42916;54.346;18.562;2023-10-19T07:40:48;99793.98;;;6.62;100.00
57024;BME280;42916;54.346;18.562;2023-10-19T07:43:15;99796.87;;;6.68;100.00
57024;BME280;42916;54.346;18.562;2023-10-19T07:45:42;99792.74;;;6.73;100.00
57024;BME280;42916;54.346;18.562;2023-10-19T07:48:09;99790.61;;;6.77;100.00
57024;BME280;42916;54.346;18.562;2023-10-19T07:50:39;99787.05;;;6.82;100.00
57024;BME280;42916;54.346;18.562;2023-10-19T07:53:10;99779.52;;;6.84;100.00
57024;BME280;42916;54.346;18.562;2023-10-19T07:55:37;99777.35;;;6.88;100.00
57024;BME280;42916;54.346;18.562;2023-10-19T07:58:05;99782.36;;;6.89;100.00
57024;BME280;42916;54.346;18.562;2023-10-19T08:00:35;99777.02;;;6.93;100.00
57024;BME280;42916;54.346;18.562;2023-10-19T08:03:03;99773.16;;;6.97;100.00
57024;BME280;42916;54.346;18.562;2023-10-19T08:05:31;99773.88;;;7.00;100.00
57024;BME280;42916;54.346;18.562;2023-10-19T08:07:58;99765.89;;;7.02;100.00
57024;BME280;42916;54.346;18.562;2023-10-19T08:10:26;99765.16;;;7.07;100.00
57024;BME280;42916;54.346;18.562;2023-10-19T08:12:54;99766.17;;;7.10;99.98
57024;BME280;42916;54.346;18.562;2023-10-19T08:15:21;99758.61;;;7.13;99.62
57024;BME280;42916;54.346;18.562;2023-10-19T08:17:50;99766.84;;;7.14;99.66
57024;BME280;42916;54.346;18.562;2023-10-19T08:20:17;99767.52;;;7.17;99.23
57024;BME280;42916;54.346;18.562;2023-10-19T08:23:04;99768.35;;;7.18;99.29
57024;BME280;42916;54.346;18.562;2023-10-19T08:25:32;99762.45;;;7.19;99.03
57024;BME280;42916;54.346;18.562;2023-10-19T08:27:59;99759.37;;;7.18;98.45
57024;BME280;42916;54.346;18.562;2023-10-19T08:30:25;99757.73;;;7.16;98.42
57024;BME280;42916;54.346;18.562;2023-10-19T08:32:53;99762.88;;;7.17;98.06
57024;BME280;42916;54.346;18.562;2023-10-19T08:35:21;99751.95;;;7.18;98.05
57024;BME280;42916;54.346;18.562;2023-10-19T08:37:55;99754.34;;;7.19;98.25
57024;BME280;42916;54.346;18.562;2023-10-19T08:40:26;99756.72;;;7.18;98.22
57024;BME280;42916;54.346;18.562;2023-10-19T08:42:54;99750.77;;;7.19;97.88
57024;BME280;42916;54.346;18.562;2023-10-19T08:45:21;99752.73;;;7.20;97.80
57024;BME280;42916;54.346;18.562;2023-10-19T08:50:26;99738.55;;;7.26;97.90
57024;BME280;42916;54.346;18.562;2023-10-19T08:52:55;99735.92;;;7.28;97.71
57024;BME280;42916;54.346;18.562;2023-10-19T08:55:23;99732.41;;;7.32;97.95
57024;BME280;42916;54.346;18.562;2023-10-19T08:57:51;99730.88;;;7.35;97.63
57024;BME280;42916;54.346;18.562;2023-10-19T09:00:19;99726.88;;;7.40;97.59
57024;BME280;42916;54.346;18.562;2023-10-19T09:02:46;99725.60;;;7.41;97.12
57024;BME280;42916;54.346;18.562;2023-10-19T09:05:13;99726.94;;;7.41;96.88
57024;BME280;42916;54.346;18.562;2023-10-19T09:07:49;99728.84;;;7.41;96.71
57024;BME280;42916;54.346;18.562;2023-10-19T09:10:27;99726.52;;;7.45;96.60
57024;BME280;42916;54.346;18.562;2023-10-19T09:13:07;99720.94;;;7.48;96.75
57024;BME280;42916;54.346;18.562;2023-10-19T09:15:39;99719.13;;;7.52;96.53
57024;BME280;42916;54.346;18.562;2023-10-19T09:18:16;99718.08;;;7.55;96.38
57024;BME280;42916;54.346;18.562;2023-10-19T09:20:46;99716.73;;;7.59;96.18
57024;BME280;42916;54.346;18.562;2023-10-19T09:23:23;99718.13;;;7.63;96.17
57024;BME280;42916;54.346;18.562;2023-10-19T09:25:52;99717.48;;;7.64;95.30
57024;BME280;42916;54.346;18.562;2023-10-19T09:28:21;99716.61;;;7.63;95.13
57024;BME280;42916;54.346;18.562;2023-10-19T09:30:51;99711.56;;;7.65;94.74
57024;BME280;42916;54.346;18.562;2023-10-19T09:33:18;99707.55;;;7.67;94.63
57024;BME280;42916;54.346;18.562;2023-10-19T09:35:49;99708.45;;;7.69;94.82
57024;BME280;42916;54.346;18.562;2023-10-19T09:38:17;99706.53;;;7.71;94.50
57024;BME280;42916;54.346;18.562;2023-10-19T09:40:52;99701.08;;;7.68;94.38
57024;BME280;42916;54.346;18.562;2023-10-19T09:43:42;99694.59;;;7.69;94.01
57024;BME280;42916;54.346;18.562;2023-10-19T09:46:09;99698.02;;;7.72;94.17
57024;BME280;42916;54.346;18.562;2023-10-19T09:48:40;99695.83;;;7.73;93.99
57024;BME280;42916;54.346;18.562;2023-10-19T09:51:12;99687.60;;;7.72;93.43
57024;BME280;42916;54.346;18.562;2023-10-19T09:53:40;99688.69;;;7.74;93.89
57024;BME280;42916;54.346;18.562;2023-10-19T09:56:12;99688.45;;;7.77;93.34
57024;BME280;42916;54.346;18.562;2023-10-19T09:58:45;99684.67;;;7.79;92.85
57024;BME280;42916;54.346;18.562;2023-10-19T10:01:13;99681.16;;;7.79;92.88
57024;BME280;42916;54.346;18.562;2023-10-19T10:03:49;99678.48;;;7.85;92.84
57024;BME280;42916;54.346;18.562;2023-10-19T10:06:29;99673.73;;;7.94;92.69
57024;BME280;42916;54.346;18.562;2023-10-19T10:08:59;99673.59;;;8.02;92.55
57024;BME280;42916;54.346;18.562;2023-10-19T10:11:27;99670.65;;;8.05;92.20
57024;BME280;42916;54.346;18.562;2023-10-19T10:13:56;99667.86;;;8.02;91.54
57024;BME280;42916;54.346;18.562;2023-10-19T10:16:24;99666.43;;;8.00;91.35
57024;BME280;42916;54.346;18.562;2023-10-19T10:18:58;99662.60;;;7.96;91.39
57024;BME280;42916;54.346;18.562;2023-10-19T10:21:29;99658.05;;;7.96;91.17
57024;BME280;42916;54.346;18.562;2023-10-19T10:23:58;99654.71;;;7.98;90.95
57024;BME280;42916;54.346;18.562;2023-10-19T10:26:31;99653.42;;;8.05;90.94
57024;BME280;42916;54.346;18.562;2023-10-19T10:29:14;99648.61;;;8.14;90.67
57024;BME280;42916;54.346;18.562;2023-10-19T10:31:50;99641.98;;;8.23;90.75
57024;BME280;42916;54.346;18.562;2023-10-19T10:37:10;99632.93;;;8.36;90.05
57024;BME280;42916;54.346;18.562;2023-10-19T10:39:38;99632.23;;;8.44;90.26
57024;BME280;42916;54.346;18.562;2023-10-19T10:42:08;99629.02;;;8.47;89.99
57024;BME280;42916;54.346;18.562;2023-10-19T10:47:17;99622.53;;;8.48;90.32
57024;BME280;42916;54.346;18.562;2023-10-19T10:49:58;99624.17;;;8.50;90.53
57024;BME280;42916;54.346;18.562;2023-10-19T10:52:36;99618.38;;;8.50;90.25
57024;BME280;42916;54.346;18.562;2023-10-19T10:55:08;99617.30;;;8.45;90.20
57024;BME280;42916;54.346;18.562;2023-10-19T10:57:38;99613.98;;;8.44;90.35
57024;BME280;42916;54.346;18.562;2023-10-19T11:00:13;99608.92;;;8.36;90.11
57024;BME280;42916;54.346;18.562;2023-10-19T11:02:45;99605.75;;;8.33;90.69
57024;BME280;42916;54.346;18.562;2023-10-19T11:05:17;99602.05;;;8.23;90.37
57024;BME280;42916;54.346;18.562;2023-10-19T11:08:14;99600.98;;;8.20;90.36
57024;BME280;42916;54.346;18.562;2023-10-19T11:10:44;99595.73;;;8.19;90.47
57024;BME280;42916;54.346;18.562;2023-10-19T11:13:17;99596.15;;;8.17;90.15
57024;BME280;42916;54.346;18.562;2023-10-19T11:15:54;99592.41;;;8.18;90.18
57024;BME280;42916;54.346;18.562;2023-10-19T11:18:37;99585.02;;;8.23;90.60
57024;BME280;42916;54.346;18.562;2023-10-19T11:21:08;99582.42;;;8.29;90.35
57024;BME280;42916;54.346;18.562;2023-10-19T11:23:40;99580.27;;;8.30;90.29
57024;BME280;42916;54.346;18.562;2023-10-19T11:26:09;99577.05;;;8.29;89.81
57024;BME280;42916;54.346;18.562;2023-10-19T11:28:38;99578.55;;;8.25;89.49
57024;BME280;42916;54.346;18.562;2023-10-19T11:31:21;99576.02;;;8.29;89.98
57024;BME280;42916;54.346;18.562;2023-10-19T11:33:52;99571.20;;;8.29;89.45
57024;BME280;42916;54.346;18.562;2023-10-19T11:36:20;99569.25;;;8.30;89.11
57024;BME280;42916;54.346;18.562;2023-10-19T11:38:49;99560.80;;;8.30;89.28
57024;BME280;42916;54.346;18.562;2023-10-19T11:41:18;99565.38;;;8.34;89.32
57024;BME280;42916;54.346;18.562;2023-10-19T11:43:46;99559.65;;;8.36;88.94
57024;BME280;42916;54.346;18.562;2023-10-19T11:46:15;99562.02;;;8.40;88.63
57024;BME280;42916;54.346;18.562;2023-10-19T11:48:42;99559.30;;;8.40;88.30
57024;BME280;42916;54.346;18.562;2023-10-19T11:51:09;99556.86;;;8.46;88.06
57024;BME280;42916;54.346;18.562;2023-10-19T11:53:41;99560.20;;;8.52;88.05
57024;BME280;42916;54.346;18.562;2023-10-19T11:56:10;99558.23;;;8.56;87.61
57024;BME280;42916;54.346;18.562;2023-10-19T11:58:39;99560.23;;;8.54;87.25
57024;BME280;42916;54.346;18.562;2023-10-19T12:01:09;99563.15;;;8.53;86.77
57024;BME280;42916;54.346;18.562;2023-10-19T12:03:39;99562.36;;;8.49;86.44
57024;BME280;42916;54.346;18.562;2023-10-19T12:06:07;99564.35;;;8.47;87.01
57024;BME280;42916;54.346;18.562;2023-10-19T12:08:35;99563.99;;;8.49;86.67
57024;BME280;42916;54.346;18.562;2023-10-19T12:11:03;99559.63;;;8.45;85.96
57024;BME280;42916;54.346;18.562;2023-10-19T12:13:30;99557.99;;;8.39;86.21
57024;BME280;42916;54.346;18.562;2023-10-19T12:16:00;99558.73;;;8.37;86.26
57024;BME280;42916;54.346;18.562;2023-10-19T12:18:31;99558.64;;;8.39;86.66
57024;BME280;42916;54.346;18.562;2023-10-19T12:20:57;99551.89;;;8.36;86.20
57024;BME280;42916;54.346;18.562;2023-10-19T12:23:26;99549.45;;;8.32;86.35
57024;BME280;42916;54.346;18.562;2023-10-19T12:25:53;99550.94;;;8.31;86.33
57024;BME280;42916;54.346;18.562;2023-10-19T12:28:19;99548.94;;;8.30;86.15
57024;BME280;42916;54.346;18.562;2023-10-19T12:30:46;99545.52;;;8.23;85.73
57024;BME280;42916;54.346;18.562;2023-10-19T12:33:13;99547.31;;;8.15;85.73
57024;BME280;42916;54.346;18.562;2023-10-19T12:35:41;99546.06;;;8.07;85.90
57024;BME280;42916;54.346;18.562;2023-10-19T12:38:26;99544.59;;;8.01;86.13
57024;BME280;42916;54.346;18.562;2023-10-19T12:40:53;99531.88;;;7.94;86.37
57024;BME280;42916;54.346;18.562;2023-10-19T12:43:20;99532.63;;;7.85;86.04
57024;BME280;42916;54.346;18.562;2023-10-19T12:45:51;99530.98;;;7.82;86.44
57024;BME280;42916;54.346;18.562;2023-10-19T12:48:20;99525.85;;;7.78;86.59
57024;BME280;42916;54.346;18.562;2023-10-19T12:50:47;99522.64;;;7.69;86.35
57024;BME280;42916;54.346;18.562;2023-10-19T12:53:14;99521.14;;;7.59;86.33
57024;BME280;42916;54.346;18.562;2023-10-19T12:55:41;99518.71;;;7.48;86.24
57024;BME280;42916;54.346;18.562;2023-10-19T12:58:09;99517.86;;;7.43;86.63
57024;BME280;42916;54.346;18.562;2023-10-19T13:00:37;99516.36;;;7.34;86.74
57024;BME280;42916;54.346;18.562;2023-10-19T13:03:08;99510.41;;;7.28;87.04
57024;BME280;42916;54.346;18.562;2023-10-19T13:05:37;99517.31;;;7.21;87.00
57024;BME280;42916;54.346;18.562;2023-10-19T13:08:06;99513.52;;;7.15;87.40
57024;BME280;42916;54.346;18.562;2023-10-19T13:10:34;99515.59;;;7.12;87.84
57024;BME280;42916;54.346;18.562;2023-10-19T13:13:05;99513.73;;;7.10;87.97
57024;BME280;42916;54.346;18.562;2023-10-19T13:15:33;99512.89;;;7.07;88.00
57024;BME280;42916;54.346;18.562;2023-10-19T13:18:02;99506.88;;;7.01;87.93
57024;BME280;42916;54.346;18.562;2023-10-19T13:20:30;99506.96;;;6.98;88.53